Time;durP1;ratioP1;P1;durP2;ratioP2;P2;SDS_P1;SDS_P2;PMS_P1;PMS_P2;Temp;Humidity;BMP_temperature;BMP_pressure;BME280_temperature;BME280_humidity;BME280_pressure;Samples;Min_cycle;Max_cycle;Signal;HPM_P1;HPM_P2
2023/12/22 00:01:25;;;;;;;11.38;2.80;;;5.10;99.90;;;;;;5085633;28;20710;-51
2023/12/22 00:03:51;;;;;;;9.23;2.55;;;5.10;99.90;;;;;;5085639;28;20052;-51
2023/12/22 00:06:16;;;;;;;13.43;3.05;;;5.10;99.90;;;;;;5086038;28;20067;-51
2023/12/22 00:08:42;;;;;;;9.38;2.60;;;5.10;99.90;;;;;;5086130;28;20528;-51
2023/12/22 00:11:08;;;;;;;8.27;2.22;;;5.10;99.90;;;;;;5085892;28;20027;-53
2023/12/22 00:13:33;;;;;;;12.35;2.58;;;5.10;99.90;;;;;;5085971;28;20481;-51
2023/12/22 00:16:00;;;;;;;10.10;2.00;;;5.10;99.90;;;;;;5084920;28;20066;-51
2023/12/22 00:18:26;;;;;;;8.02;2.33;;;5.10;99.90;;;;;;5085428;28;20046;-52
2023/12/22 00:20:52;;;;;;;6.05;1.70;;;5.10;99.90;;;;;;5084690;28;20107;-51
2023/12/22 00:23:17;;;;;;;9.73;1.88;;;5.00;99.90;;;;;;5067588;28;20115;-49
2023/12/22 00:25:43;;;;;;;11.18;2.40;;;5.00;99.90;;;;;;5085514;28;20063;-51
2023/12/22 00:28:08;;;;;;;12.27;2.67;;;4.90;99.90;;;;;;5085360;28;20036;-53
2023/12/22 00:30:34;;;;;;;8.07;2.10;;;4.90;99.90;;;;;;5085509;28;20056;-50
2023/12/22 00:33:00;;;;;;;8.20;2.38;;;4.90;99.90;;;;;;5085101;28;20149;-53
2023/12/22 00:35:25;;;;;;;5.40;1.13;;;4.80;99.90;;;;;;5084999;28;20208;-52
2023/12/22 00:37:52;;;;;;;13.25;2.53;;;4.80;99.90;;;;;;5083894;28;20024;-52
2023/12/22 00:40:18;;;;;;;11.57;2.88;;;4.80;99.90;;;;;;5085134;28;20036;-51
2023/12/22 00:42:44;;;;;;;7.80;2.45;;;4.80;99.90;;;;;;5084654;28;20050;-52
2023/12/22 15:10:54;;;;;;;15.77;4.57;;;3.40;1.00;;;;;;5119145;27;20224;-51
2023/12/22 15:13:19;;;;;;;15.57;4.95;;;3.30;1.00;;;;;;5120021;28;20035;-52
2023/12/22 15:15:45;;;;;;;17.88;4.70;;;3.30;1.00;;;;;;5120067;28;20437;-48
2023/12/22 15:18:10;;;;;;;13.02;5.00;;;3.30;1.00;;;;;;5101065;28;20031;-48
2023/12/22 15:20:36;;;;;;;11.02;3.63;;;3.30;1.00;;;;;;5119899;28;20505;-50
2023/12/22 15:23:02;;;;;;;11.98;3.75;;;3.30;1.00;;;;;;5120884;28;20027;-50
2023/12/22 15:25:27;;;;;;;8.38;3.60;;;3.20;1.00;;;;;;5120173;28;20027;-52
2023/12/22 15:27:53;;;;;;;12.13;2.70;;;3.20;1.00;;;;;;5103181;28;20103;-50
2023/12/22 15:30:19;;;;;;;12.52;2.63;;;3.10;1.00;;;;;;5121014;28;20216;-52
2023/12/22 15:32:45;;;;;;;8.40;2.50;;;3.10;1.00;;;;;;5121621;28;20035;-50
2023/12/22 15:35:11;;;;;;;9.13;2.88;;;3.20;1.00;;;;;;5121433;28;20124;-53
2023/12/22 15:37:37;;;;;;;9.30;2.75;;;3.20;1.00;;;;;;5120009;28;20023;-54
2023/12/22 15:40:03;;;;;;;12.40;2.50;;;3.10;1.00;;;;;;5120455;28;20061;-52
2023/12/22 15:42:29;;;;;;;11.80;2.75;;;3.10;1.00;;;;;;5119048;28;20474;-52
2023/12/22 15:44:55;;;;;;;9.80;3.17;;;3.10;1.00;;;;;;5119492;28;20386;-48
2023/12/22 15:47:21;;;;;;;9.38;2.85;;;3.10;1.00;;;;;;5119552;28;20027;-53
2023/12/22 15:49:46;;;;;;;8.27;2.65;;;3.00;1.00;;;;;;5102050;28;20147;-50
2023/12/22 15:52:12;;;;;;;10.48;2.97;;;3.10;1.00;;;;;;5120049;28;20106;-52
2023/12/22 15:54:41;;;;;;;9.45;3.00;;;3.10;1.00;;;;;;5120200;28;20027;-52
2023/12/22 15:57:06;;;;;;;15.30;5.63;;;3.10;1.00;;;;;;5120498;28;20031;-50
2023/12/22 15:59:32;;;;;;;19.02;5.43;;;3.10;1.00;;;;;;5120939;28;20031;-52
2023/12/22 16:01:58;;;;;;;19.77;5.88;;;3.10;1.00;;;;;;5120901;28;20039;-49
2023/12/22 16:04:23;;;;;;;17.52;6.00;;;3.10;1.00;;;;;;5121084;28;20110;-54
2023/12/22 16:06:49;;;;;;;21.73;7.18;;;3.10;1.00;;;;;;5119965;28;20035;-49
2023/12/22 16:09:14;;;;;;;31.50;10.23;;;3.00;1.00;;;;;;5120545;28;20058;-51
2023/12/22 16:11:40;;;;;;;26.27;8.93;;;3.00;1.00;;;;;;5121513;28;20126;-54
2023/12/22 16:14:06;;;;;;;25.65;8.18;;;3.00;1.00;;;;;;5121436;28;20029;-49
2023/12/22 16:16:31;;;;;;;13.50;4.50;;;2.90;1.00;;;;;;5121055;28;20027;-50
2023/12/22 16:18:57;;;;;;;14.18;3.47;;;2.90;1.00;;;;;;5119660;28;20110;-47
2023/12/22 16:21:23;;;;;;;12.95;5.25;;;2.80;1.00;;;;;;5109942;28;20103;-51
2023/12/22 16:23:48;;;;;;;11.00;4.28;;;2.80;1.00;;;;;;5105227;28;20684;-49
2023/12/22 16:26:20;;;;;;;18.20;4.88;;;2.80;1.00;;;;;;5105840;28;20041;-52
2023/12/22 16:28:45;;;;;;;12.52;4.43;;;2.70;1.00;;;;;;5105612;28;20071;-52
2023/12/22 16:31:12;;;;;;;18.17;5.70;;;2.70;1.00;;;;;;5106100;28;20084;-48
2023/12/22 16:33:38;;;;;;;19.83;5.00;;;2.70;1.00;;;;;;5105782;28;20419;-53
2023/12/22 16:36:09;;;;;;;13.60;4.78;;;2.60;1.00;;;;;;5105824;28;20110;-52
2023/12/22 16:38:34;;;;;;;19.40;6.03;;;2.60;1.00;;;;;;5105703;28;20177;-54
2023/12/22 16:41:04;;;;;;;17.42;5.80;;;2.60;1.00;;;;;;5104482;28;20106;-47
2023/12/22 16:43:30;;;;;;;16.10;4.95;;;2.60;1.00;;;;;;5105035;28;20047;-49
2023/12/22 16:45:55;;;;;;;12.73;4.22;;;2.70;1.00;;;;;;5105202;28;20558;-53
2023/12/22 16:48:21;;;;;;;16.17;6.35;;;2.70;1.00;;;;;;5106128;28;20023;-49
2023/12/22 16:50:46;;;;;;;15.60;5.00;;;2.70;1.00;;;;;;5106735;28;20074;-50
2023/12/22 16:53:12;;;;;;;16.35;5.05;;;2.70;1.00;;;;;;5106430;28;20462;-51
2023/12/22 16:55:38;;;;;;;14.98;3.90;;;2.80;1.00;;;;;;5106861;28;20027;-46
2023/12/22 16:58:03;;;;;;;15.60;4.30;;;2.90;1.00;;;;;;5105189;28;20433;-50
2023/12/22 17:00:29;;;;;;;15.25;5.30;;;2.90;1.00;;;;;;5106920;28;20024;-53
2023/12/22 17:02:55;;;;;;;14.77;5.38;;;2.80;1.00;;;;;;5106698;28;20053;-49
2023/12/22 17:05:21;;;;;;;12.55;5.38;;;2.80;1.00;;;;;;5106622;28;20080;-51
2023/12/22 17:07:46;;;;;;;22.23;5.80;;;2.80;1.00;;;;;;5107259;28;20055;-51
2023/12/22 17:10:12;;;;;;;23.45;8.32;;;2.70;1.00;;;;;;5106543;28;20130;-49
2023/12/22 17:12:38;;;;;;;32.15;10.88;;;2.70;1.00;;;;;;5106431;28;20047;-47
2023/12/22 17:15:05;;;;;;;27.02;8.02;;;2.70;1.00;;;;;;5106552;28;20110;-49
2023/12/22 17:17:32;;;;;;;25.65;6.55;;;2.70;1.00;;;;;;5106063;28;20077;-53
2023/12/22 17:19:59;;;;;;;25.45;8.77;;;2.70;1.00;;;;;;5106307;28;20657;-51
2023/12/22 17:22:25;;;;;;;22.65;6.57;;;2.70;1.00;;;;;;5106153;28;20028;-51
2023/12/22 17:24:50;;;;;;;22.52;7.00;;;2.70;1.00;;;;;;5106232;28;20039;-53
2023/12/22 17:27:16;;;;;;;24.90;7.00;;;2.70;1.00;;;;;;5106820;28;20474;-52
2023/12/22 17:29:41;;;;;;;15.65;4.72;;;2.70;1.00;;;;;;5106371;28;20032;-48
2023/12/22 17:32:08;;;;;;;27.60;9.77;;;2.70;1.00;;;;;;5105348;28;20069;-49
2023/12/22 17:34:34;;;;;;;16.13;5.32;;;2.80;1.00;;;;;;5105964;28;20058;-49
2023/12/22 17:37:00;;;;;;;23.17;9.43;;;2.80;1.00;;;;;;5105969;28;20524;-50
2023/12/22 17:39:26;;;;;;;18.70;5.50;;;2.80;1.00;;;;;;5106158;28;20036;-55
2023/12/22 17:41:52;;;;;;;19.50;6.60;;;2.80;1.00;;;;;;5105663;28;20035;-51
2023/12/22 17:44:17;;;;;;;20.13;6.00;;;2.80;1.00;;;;;;5105636;28;20035;-48
2023/12/22 17:46:43;;;;;;;21.48;8.57;;;2.80;1.00;;;;;;5105742;28;20035;-50
2023/12/22 17:49:09;;;;;;;20.08;8.32;;;2.70;1.00;;;;;;5105952;28;20853;-50
2023/12/22 17:51:35;;;;;;;21.10;7.82;;;2.70;3.20;;;;;;5105695;28;20123;-51
2023/12/22 17:54:00;;;;;;;23.73;8.80;;;2.70;2.10;;;;;;5106074;28;20111;-53
2023/12/22 17:56:26;;;;;;;26.77;9.73;;;2.70;3.90;;;;;;5106112;28;20678;-51
2023/12/22 17:58:52;;;;;;;34.08;12.60;;;2.70;6.60;;;;;;5104332;28;20124;-51
2023/12/22 18:01:18;;;;;;;33.03;9.73;;;2.70;9.50;;;;;;5105423;28;20027;-54
2023/12/22 18:03:44;;;;;;;31.83;10.23;;;2.70;12.90;;;;;;5105896;28;20472;-52
2023/12/22 18:06:10;;;;;;;19.92;5.88;;;2.70;22.50;;;;;;5105432;28;20116;-50
2023/12/22 18:08:36;;;;;;;20.63;8.45;;;2.60;15.80;;;;;;5104749;28;20141;-49
2023/12/22 18:11:03;;;;;;;21.38;7.07;;;2.70;14.10;;;;;;5105671;28;20050;-50
2023/12/22 18:13:30;;;;;;;20.08;7.35;;;2.60;20.60;;;;;;5105438;28;20032;-53
2023/12/22 18:15:57;;;;;;;17.52;8.15;;;2.60;27.50;;;;;;5104712;28;20047;-48
2023/12/22 18:18:23;;;;;;;19.00;7.63;;;2.60;21.80;;;;;;5105007;28;20038;-50
2023/12/22 18:20:48;;;;;;;18.38;7.70;;;2.60;18.00;;;;;;5105072;28;20035;-54
2023/12/22 18:23:14;;;;;;;25.48;11.80;;;2.60;41.90;;;;;;5104993;28;20039;-52
2023/12/22 18:25:40;;;;;;;18.42;7.20;;;2.60;87.30;;;;;;5105310;28;20130;-50
2023/12/22 18:28:07;;;;;;;17.95;6.03;;;2.60;99.90;;;;;;5105869;28;20114;-51
2023/12/22 18:30:33;;;;;;;27.60;11.65;;;2.60;99.90;;;;;;5104779;28;20048;-50
2023/12/22 18:32:59;;;;;;;41.28;16.70;;;2.60;99.90;;;;;;5104596;28;20036;-49
2023/12/22 18:35:24;;;;;;;36.72;14.32;;;2.50;99.90;;;;;;5104731;28;20042;-49
2023/12/22 18:37:50;;;;;;;37.92;15.57;;;2.60;99.90;;;;;;5104584;28;20042;-49
2023/12/22 18:40:16;;;;;;;27.45;11.48;;;2.50;99.90;;;;;;5104702;28;20141;-50
2023/12/22 18:42:41;;;;;;;27.70;11.45;;;2.50;99.90;;;;;;5104676;28;20080;-50
2023/12/22 18:45:07;;;;;;;30.33;12.63;;;2.40;99.90;;;;;;5104782;28;21629;-50
2023/12/22 18:47:33;;;;;;;29.48;12.50;;;2.40;99.90;;;;;;5104744;28;20024;-52
2023/12/22 18:49:58;;;;;;;27.75;10.05;;;2.30;99.90;;;;;;5104427;28;20067;-51
2023/12/22 18:52:24;;;;;;;26.80;9.70;;;2.30;99.90;;;;;;5103969;28;20147;-50
2023/12/22 18:54:50;;;;;;;27.00;8.60;;;2.20;99.90;;;;;;5104264;28;20081;-53
2023/12/22 18:57:16;;;;;;;27.00;11.07;;;2.20;99.90;;;;;;5102745;28;20085;-49
2023/12/22 18:59:42;;;;;;;24.48;9.98;;;2.20;99.90;;;;;;5104536;28;20043;-50
2023/12/22 19:02:07;;;;;;;28.17;9.18;;;2.20;99.90;;;;;;5104769;28;20637;-47
2023/12/22 19:04:33;;;;;;;24.75;8.80;;;2.20;99.90;;;;;;5105172;28;20070;-50
2023/12/22 19:06:58;;;;;;;17.08;6.07;;;2.20;99.90;;;;;;5104480;28;20032;-50
2023/12/22 19:09:24;;;;;;;8.35;3.58;;;2.20;99.90;;;;;;5102712;28;20367;-49
2023/12/22 19:11:50;;;;;;;11.85;3.75;;;2.30;99.90;;;;;;5102593;28;20088;-52
2023/12/22 19:14:15;;;;;;;13.30;3.97;;;2.20;99.90;;;;;;5102038;28;20078;-50
2023/12/22 19:16:41;;;;;;;15.95;4.05;;;2.30;99.90;;;;;;5102904;28;20100;-50
2023/12/22 19:19:07;;;;;;;12.48;4.82;;;2.30;99.90;;;;;;5101994;28;20031;-54
2023/12/22 19:21:33;;;;;;;11.50;4.00;;;2.30;99.90;;;;;;5102790;28;20029;-50
2023/12/22 19:23:58;;;;;;;12.88;5.22;;;2.30;99.90;;;;;;5101896;28;20051;-51
2023/12/22 19:26:24;;;;;;;23.88;8.68;;;2.30;99.90;;;;;;5102924;28;20031;-48
2023/12/22 19:28:50;;;;;;;25.10;10.70;;;2.30;99.90;;;;;;5101926;28;20542;-52
2023/12/22 19:31:16;;;;;;;28.85;9.13;;;2.30;99.90;;;;;;5102474;28;20016;-52
2023/12/22 19:33:41;;;;;;;21.23;8.25;;;2.20;99.90;;;;;;5102161;28;20024;-51
2023/12/22 19:36:07;;;;;;;21.45;6.63;;;2.20;99.90;;;;;;5102081;28;20039;-52
2023/12/22 19:38:33;;;;;;;15.00;4.85;;;2.20;99.90;;;;;;5102705;28;20023;-50
2023/12/22 19:40:58;;;;;;;12.70;3.95;;;2.10;99.90;;;;;;5099654;28;20021;-53
2023/12/22 19:43:24;;;;;;;16.08;5.22;;;2.10;99.90;;;;;;5102160;28;20418;-50
2023/12/22 19:45:50;;;;;;;14.20;4.68;;;2.10;99.90;;;;;;5102522;28;20122;-48
2023/12/22 19:48:16;;;;;;;12.98;4.47;;;2.10;99.90;;;;;;5084005;28;20076;-50
2023/12/22 19:50:44;;;;;;;19.15;6.45;;;2.10;99.90;;;;;;5101575;28;20126;-49
2023/12/22 19:53:10;;;;;;;14.45;4.93;;;2.10;99.90;;;;;;5102531;28;20027;-51
2023/12/22 19:55:37;;;;;;;9.60;3.65;;;2.10;99.90;;;;;;5102215;28;20100;-51
2023/12/22 19:58:03;;;;;;;16.17;3.75;;;2.10;99.90;;;;;;5102336;28;20047;-48
2023/12/22 20:00:28;;;;;;;14.02;5.47;;;2.10;99.90;;;;;;5098297;27;20118;-49
2023/12/22 20:02:55;;;;;;;18.20;5.95;;;2.00;99.90;;;;;;5094652;28;20024;-51
2023/12/22 20:05:20;;;;;;;19.80;6.95;;;2.00;99.90;;;;;;5105155;28;20513;-48
2023/12/22 20:07:46;;;;;;;23.42;7.63;;;2.00;99.90;;;;;;5102458;28;20032;-48
2023/12/22 20:10:12;;;;;;;25.83;9.23;;;1.90;99.90;;;;;;5081534;28;20070;-48
2023/12/22 20:12:42;;;;;;;23.35;10.75;;;1.90;99.90;;;;;;5105228;28;20368;-49
2023/12/22 20:15:10;;;;;;;27.25;9.77;;;1.90;99.90;;;;;;5105586;28;20082;-48
2023/12/22 20:17:35;;;;;;;26.20;7.82;;;1.90;99.90;;;;;;5105690;28;20050;-50
2023/12/22 20:20:04;;;;;;;17.65;6.18;;;2.00;99.90;;;;;;5105301;28;20668;-50
2023/12/22 20:22:30;;;;;;;19.55;6.85;;;2.00;99.90;;;;;;5105966;28;20042;-46
2023/12/22 20:24:56;;;;;;;19.65;7.10;;;2.00;99.90;;;;;;5105409;28;20154;-52
2023/12/22 20:27:21;;;;;;;21.38;7.68;;;2.00;99.90;;;;;;5105722;28;20058;-53
2023/12/22 20:29:47;;;;;;;17.77;5.80;;;2.00;99.90;;;;;;5105632;28;20097;-48
2023/12/22 20:32:13;;;;;;;17.30;5.82;;;2.00;99.90;;;;;;5105260;28;20397;-49
2023/12/22 20:34:38;;;;;;;20.63;6.50;;;2.10;99.90;;;;;;5105472;28;20441;-49
2023/12/22 20:37:04;;;;;;;19.58;7.00;;;2.00;99.90;;;;;;5105192;28;20024;-51
2023/12/22 20:39:30;;;;;;;17.70;5.05;;;2.00;99.90;;;;;;5104698;28;20031;-52
2023/12/22 20:41:55;;;;;;;15.70;4.60;;;2.10;99.90;;;;;;5105286;28;20082;-49
2023/12/22 20:44:25;;;;;;;15.35;3.97;;;2.10;99.90;;;;;;5105595;28;20110;-51
2023/12/22 20:46:52;;;;;;;11.15;3.25;;;2.00;99.90;;;;;;5105340;28;20035;-50
2023/12/22 20:49:18;;;;;;;12.13;3.40;;;2.10;93.00;;;;;;5104956;28;20071;-50
2023/12/22 20:51:45;;;;;;;12.05;4.50;;;2.10;91.80;;;;;;5105010;28;20530;-51
2023/12/22 20:54:11;;;;;;;11.48;3.78;;;2.10;91.20;;;;;;5087015;28;20830;-49
2023/12/22 20:56:37;;;;;;;10.02;3.10;;;2.10;88.90;;;;;;5085602;28;20032;-49
2023/12/22 20:59:03;;;;;;;17.70;4.25;;;2.10;80.00;;;;;;5084031;28;20032;-48
2023/12/22 21:01:29;;;;;;;13.50;4.78;;;2.20;74.50;;;;;;5085311;28;20040;-49
2023/12/22 21:03:54;;;;;;;14.23;4.20;;;2.20;73.70;;;;;;5085137;28;20039;-50
2023/12/22 21:06:20;;;;;;;12.68;3.67;;;2.20;57.50;;;;;;5101676;28;20511;-51
2023/12/22 21:08:45;;;;;;;15.43;3.83;;;2.30;53.40;;;;;;5087450;28;20154;-50
2023/12/22 21:11:11;;;;;;;11.45;3.05;;;2.30;44.40;;;;;;5105902;28;20050;-46
2023/12/22 21:13:41;;;;;;;8.45;2.50;;;2.30;45.60;;;;;;5105074;28;20046;-52
2023/12/22 21:16:07;;;;;;;10.15;2.75;;;2.30;40.60;;;;;;5069774;28;20034;-53
2023/12/22 21:18:33;;;;;;;8.75;3.03;;;2.30;41.80;;;;;;5105018;28;20023;-49
2023/12/22 21:21:05;;;;;;;9.20;3.17;;;2.30;32.10;;;;;;5103995;28;20888;-50
2023/12/22 21:23:31;;;;;;;15.88;2.88;;;2.40;28.90;;;;;;5103086;28;20027;-50
2023/12/22 21:25:57;;;;;;;11.77;3.10;;;2.40;27.30;;;;;;5104872;28;20987;-51
2023/12/22 21:28:23;;;;;;;11.73;2.90;;;2.40;28.30;;;;;;5104780;28;20557;-50
2023/12/22 21:30:50;;;;;;;8.30;2.28;;;2.40;31.10;;;;;;5104883;28;20031;-52
2023/12/22 21:33:15;;;;;;;9.82;2.40;;;2.40;30.70;;;;;;5104487;28;20071;-48
2023/12/22 21:35:41;;;;;;;10.45;2.85;;;2.40;31.20;;;;;;5103554;28;20106;-50
2023/12/22 21:38:06;;;;;;;12.57;2.90;;;2.30;35.70;;;;;;5104133;28;20030;-49
2023/12/22 21:40:32;;;;;;;10.32;3.08;;;2.30;41.90;;;;;;5105035;28;20114;-49
2023/12/22 21:42:59;;;;;;;7.63;2.10;;;2.30;40.10;;;;;;5105033;28;20051;-51
2023/12/22 21:45:25;;;;;;;12.43;2.83;;;2.30;38.40;;;;;;5104139;28;20031;-51
2023/12/22 21:47:50;;;;;;;8.82;2.25;;;2.30;39.40;;;;;;5102842;28;20059;-52
2023/12/22 21:50:16;;;;;;;10.48;3.05;;;2.30;42.10;;;;;;5084783;28;20695;-50
2023/12/22 21:52:42;;;;;;;8.45;2.75;;;2.30;41.00;;;;;;5103527;28;20036;-49
2023/12/22 21:55:07;;;;;;;12.05;3.25;;;2.20;42.50;;;;;;5103283;28;20467;-52
2023/12/22 21:57:33;;;;;;;19.55;4.68;;;2.20;42.40;;;;;;5101301;28;20119;-51
2023/12/22 21:59:59;;;;;;;11.75;3.50;;;2.20;42.40;;;;;;5104364;28;20081;-51
2023/12/22 22:02:25;;;;;;;8.90;2.75;;;2.10;36.30;;;;;;5104390;28;20455;-50
2023/12/22 22:04:51;;;;;;;9.18;2.95;;;2.20;34.70;;;;;;5103819;28;20023;-51
2023/12/22 22:07:17;;;;;;;12.93;3.42;;;2.10;40.20;;;;;;5103509;28;20466;-51
2023/12/22 22:09:43;;;;;;;18.85;4.65;;;2.10;44.40;;;;;;5103781;28;20102;-47
2023/12/22 22:12:09;;;;;;;15.88;3.53;;;2.00;53.60;;;;;;5104082;28;20119;-50
2023/12/22 22:14:35;;;;;;;20.50;4.38;;;2.00;59.60;;;;;;5103794;28;20059;-47
2023/12/22 22:17:00;;;;;;;12.15;4.38;;;2.00;73.40;;;;;;5104111;28;20055;-48
2023/12/22 22:19:26;;;;;;;11.75;4.35;;;1.90;80.30;;;;;;5103135;28;20054;-50
2023/12/22 22:21:52;;;;;;;11.88;3.63;;;1.90;84.80;;;;;;5102990;28;20035;-50
2023/12/22 22:24:18;;;;;;;10.95;3.45;;;1.90;92.10;;;;;;5104110;28;20067;-52
2023/12/22 22:26:44;;;;;;;11.65;3.33;;;1.80;95.80;;;;;;5104128;28;20059;-48
2023/12/22 22:29:11;;;;;;;8.52;2.78;;;1.90;99.70;;;;;;5104725;28;20034;-49
2023/12/22 22:31:40;;;;;;;;;;;1.90;99.90;;;;;;5104914;28;20046;-52
2023/12/22 22:34:06;;;;;;;12.10;3.10;;;1.90;99.90;;;;;;5104071;28;20342;-50
2023/12/22 22:36:31;;;;;;;10.73;2.97;;;1.90;99.90;;;;;;5104924;28;20099;-51
2023/12/22 22:38:57;;;;;;;7.85;2.05;;;1.90;99.90;;;;;;5104186;28;20020;-49
2023/12/22 22:41:24;;;;;;;9.80;2.92;;;1.90;99.90;;;;;;5103869;28;20110;-48
2023/12/22 22:43:50;;;;;;;12.88;3.35;;;1.90;99.90;;;;;;5102247;28;20058;-47
2023/12/22 22:46:16;;;;;;;9.30;2.75;;;1.90;99.90;;;;;;5103748;28;20482;-51
2023/12/22 22:48:41;;;;;;;13.15;3.78;;;1.90;99.90;;;;;;5103749;28;20344;-49
2023/12/22 22:51:07;;;;;;;9.07;3.05;;;1.90;99.90;;;;;;5101613;28;20035;-46
2023/12/22 22:53:33;;;;;;;12.98;3.40;;;2.00;99.90;;;;;;5103112;28;20043;-50
2023/12/22 22:56:00;;;;;;;12.73;3.10;;;2.00;99.90;;;;;;5101934;28;20114;-50
2023/12/22 22:58:26;;;;;;;15.55;3.42;;;2.00;99.90;;;;;;5101682;28;20055;-46
2023/12/22 23:00:53;;;;;;;13.07;4.35;;;2.00;99.90;;;;;;5103444;28;20522;-46
2023/12/22 23:03:18;;;;;;;14.95;5.22;;;2.10;99.90;;;;;;5102847;28;20475;-48
2023/12/22 23:05:46;;;;;;;12.60;4.80;;;2.10;99.90;;;;;;5102675;28;20031;-50
2023/12/22 23:08:11;;;;;;;19.52;3.55;;;2.10;99.90;;;;;;5101732;28;20698;-49
2023/12/22 23:10:37;;;;;;;16.17;3.80;;;2.10;99.90;;;;;;5102446;28;20055;-51
2023/12/22 23:13:03;;;;;;;15.30;4.22;;;2.10;99.90;;;;;;5103438;28;20028;-50
2023/12/22 23:15:29;;;;;;;13.80;3.35;;;2.10;99.90;;;;;;5103434;28;20441;-50
2023/12/22 23:17:55;;;;;;;12.40;3.45;;;2.10;99.90;;;;;;5103335;28;20505;-49
2023/12/22 23:20:21;;;;;;;13.35;2.97;;;2.10;96.10;;;;;;5103813;28;20035;-50
2023/12/22 23:22:46;;;;;;;12.50;3.20;;;2.10;96.30;;;;;;5103835;28;20015;-48
2023/12/22 23:25:12;;;;;;;8.63;2.90;;;2.10;91.20;;;;;;5103612;28;20031;-53
2023/12/22 23:27:39;;;;;;;9.07;2.53;;;2.10;91.20;;;;;;5103405;28;20050;-49
2023/12/22 23:30:06;;;;;;;14.05;2.67;;;2.20;84.00;;;;;;5103052;28;20058;-48
2023/12/22 23:32:31;;;;;;;;;;;2.20;85.50;;;;;;5107509;28;20035;-47
2023/12/22 23:34:57;;;;;;;8.82;3.00;;;2.20;89.70;;;;;;5107932;28;19915;-50
2023/12/22 23:37:23;;;;;;;21.20;4.93;;;2.20;95.60;;;;;;5107426;28;20024;-48
2023/12/22 23:39:49;;;;;;;20.27;5.97;;;2.20;98.20;;;;;;5107594;28;20118;-49
2023/12/22 23:42:15;;;;;;;19.50;5.57;;;2.20;99.90;;;;;;5106708;28;20132;-50
2023/12/22 23:44:43;;;;;;;20.95;4.65;;;2.10;99.90;;;;;;5107148;28;20469;-46
2023/12/22 23:47:09;;;;;;;16.52;4.85;;;2.20;99.90;;;;;;5106808;28;20470;-50
2023/12/22 23:49:34;;;;;;;15.68;4.47;;;2.10;99.90;;;;;;5107099;28;20039;-48
2023/12/22 23:52:00;;;;;;;11.20;3.90;;;2.10;99.90;;;;;;5106927;28;20058;-53
2023/12/22 23:54:26;;;;;;;12.38;3.72;;;2.20;99.90;;;;;;5106937;28;20027;-47
2023/12/22 23:56:51;;;;;;;12.40;3.38;;;2.20;99.90;;;;;;5107201;28;20031;-50
2023/12/22 23:59:19;;;;;;;15.90;5.22;;;2.20;99.90;;;;;;5105128;28;20055;-47
